Time;durP1;ratioP1;P1;durP2;ratioP2;P2;SDS_P1;SDS_P2;PMS_P1;PMS_P2;Temp;Humidity;BMP_temperature;BMP_pressure;BME280_temperature;BME280_humidity;BME280_pressure;Samples;Min_cycle;Max_cycle;Signal;HPM_P1;HPM_P2
2022/03/17 00:00:38;;;;;;;36.63;15.83;;;1.00;99.90;;;;;;5014400;28;20177;-66
2022/03/17 00:03:05;;;;;;;35.50;15.40;;;1.00;99.90;;;;;;5014751;28;20181;-66
2022/03/17 00:05:30;;;;;;;32.03;14.47;;;1.10;99.90;;;;;;5014183;28;20215;-65
2022/03/17 00:07:56;;;;;;;35.27;15.87;;;1.10;99.90;;;;;;5014557;28;20626;-65
2022/03/17 00:10:22;;;;;;;36.57;14.97;;;1.00;99.90;;;;;;4996673;28;20592;-65
2022/03/17 00:12:48;;;;;;;35.93;15.23;;;1.10;99.90;;;;;;5014219;28;20641;-66
2022/03/17 00:15:15;;;;;;;36.40;15.03;;;1.10;99.90;;;;;;5014165;28;20262;-65
2022/03/17 00:17:41;;;;;;;32.80;14.83;;;1.00;99.90;;;;;;5013784;28;20189;-66
2022/03/17 00:20:10;;;;;;;31.83;14.30;;;1.00;99.90;;;;;;5013924;28;20194;-66
2022/03/17 00:22:36;;;;;;;33.33;14.77;;;0.90;99.90;;;;;;5014138;28;20211;-66
2022/03/17 00:25:04;;;;;;;30.63;14.27;;;0.90;99.90;;;;;;5014082;28;20176;-64
2022/03/17 00:27:31;;;;;;;35.03;14.90;;;1.00;99.90;;;;;;5013703;28;20182;-64
2022/03/17 00:29:57;;;;;;;38.80;15.17;;;1.00;99.90;;;;;;4996499;28;20188;-64
2022/03/17 00:32:23;;;;;;;32.87;15.87;;;1.00;99.90;;;;;;5013388;28;20187;-65
2022/03/17 00:37:34;;;;;;;53.63;16.90;;;1.00;99.90;;;;;;5013755;28;20181;-64
2022/03/17 00:39:59;;;;;;;36.13;15.20;;;1.00;99.90;;;;;;5013885;28;20185;-64
2022/03/17 00:42:27;;;;;;;31.00;15.47;;;1.00;99.90;;;;;;5013492;28;20362;-64
2022/03/17 00:44:54;;;;;;;38.97;16.73;;;1.00;99.90;;;;;;5013579;28;20176;-64
2022/03/17 00:47:21;;;;;;;38.57;16.27;;;1.00;99.90;;;;;;4995770;28;20226;-65
2022/03/17 00:49:47;;;;;;;35.73;15.40;;;1.00;99.90;;;;;;5013355;28;20181;-64
2022/03/17 00:52:14;;;;;;;33.17;15.70;;;0.90;99.90;;;;;;5013259;28;20491;-64
2022/03/17 00:54:41;;;;;;;34.23;15.07;;;0.90;99.90;;;;;;5012048;28;20195;-65
2022/03/17 00:57:08;;;;;;;37.13;16.67;;;1.00;99.90;;;;;;5013423;28;20223;-65
2022/03/17 00:59:36;;;;;;;42.40;17.13;;;0.90;99.90;;;;;;5012993;28;20253;-64
2022/03/17 01:02:04;;;;;;;37.80;15.17;;;0.90;99.90;;;;;;5013333;28;20248;-65
2022/03/17 01:04:30;;;;;;;43.33;14.73;;;0.90;99.90;;;;;;5012700;28;20194;-65
2022/03/17 01:06:55;;;;;;;30.40;14.07;;;0.90;99.90;;;;;;5012490;28;20200;-65
2022/03/17 01:09:21;;;;;;;67.90;16.00;;;0.90;99.90;;;;;;5012836;28;20664;-66
2022/03/17 01:11:47;;;;;;;31.60;13.43;;;0.90;99.90;;;;;;5013234;28;20193;-66
2022/03/17 01:14:13;;;;;;;28.00;12.60;;;1.00;99.90;;;;;;5013061;28;20194;-64
2022/03/17 01:16:40;;;;;;;34.23;13.60;;;1.00;99.90;;;;;;4995468;28;20299;-66
2022/03/17 01:19:06;;;;;;;30.57;13.77;;;1.00;99.90;;;;;;5013051;28;20240;-66
2022/03/17 01:21:32;;;;;;;43.47;15.33;;;1.00;99.90;;;;;;4995022;28;20221;-65
2022/03/17 01:23:58;;;;;;;31.13;14.13;;;1.10;99.90;;;;;;5013182;28;20199;-66
2022/03/17 01:26:24;;;;;;;31.30;15.13;;;1.00;99.90;;;;;;5012831;28;20200;-65
2022/03/17 01:28:49;;;;;;;37.27;15.47;;;1.00;99.90;;;;;;5013065;28;20208;-65
2022/03/17 01:31:15;;;;;;;35.47;14.43;;;1.00;99.90;;;;;;5012758;28;20200;-65
2022/03/17 01:33:41;;;;;;;42.60;15.50;;;1.00;99.90;;;;;;5012795;28;20307;-65
2022/03/17 01:36:07;;;;;;;38.50;16.63;;;0.90;99.90;;;;;;5021547;28;20189;-65
2022/03/17 01:38:33;;;;;;;34.37;15.60;;;0.90;99.90;;;;;;5014527;28;20221;-64
2022/03/17 01:41:00;;;;;;;37.17;16.13;;;0.80;99.90;;;;;;5032245;28;20729;-65
2022/03/17 01:43:25;;;;;;;40.30;16.83;;;0.70;99.90;;;;;;5014764;28;20182;-66
2022/03/17 01:45:54;;;;;;;41.37;17.13;;;0.50;99.90;;;;;;5032355;28;20552;-65
2022/03/17 01:48:21;;;;;;;37.73;17.13;;;0.40;99.90;;;;;;5032093;28;20361;-66
2022/03/17 01:50:51;;;;;;;32.50;14.80;;;0.40;99.90;;;;;;5032334;28;20191;-66
2022/03/17 01:53:17;;;;;;;33.50;15.53;;;0.30;99.90;;;;;;5032123;28;20171;-66
2022/03/17 01:55:43;;;;;;;40.73;15.63;;;0.20;99.90;;;;;;5032370;28;20321;-65
2022/03/17 01:58:10;;;;;;;33.63;13.80;;;0.00;99.90;;;;;;5032036;28;20949;-65
2022/03/17 02:00:37;;;;;;;32.07;13.30;;;-0.20;99.90;;;;;;5031891;28;20182;-67
2022/03/17 02:03:03;;;;;;;27.13;10.77;;;-0.30;99.90;;;;;;5032211;28;20174;-65
2022/03/17 02:05:29;;;;;;;25.77;11.20;;;-0.50;99.90;;;;;;5013711;28;20189;-65
2022/03/17 02:07:55;;;;;;;26.23;10.97;;;-0.70;99.90;;;;;;5031993;28;20185;-66
2022/03/17 02:10:23;;;;;;;22.73;9.03;;;-0.90;99.90;;;;;;5032172;28;20190;-65
2022/03/17 02:15:34;;;;;;;16.70;7.93;;;-1.30;99.90;;;;;;5029905;28;20255;-66
2022/03/17 02:18:07;;;;;;;21.00;8.90;;;-1.40;99.90;;;;;;5029782;28;20646;-65
2022/03/17 02:20:33;;;;;;;19.73;8.47;;;-1.60;99.90;;;;;;5030055;28;20227;-65
2022/03/17 02:25:56;;;;;;;17.53;7.80;;;-1.80;99.90;;;;;;5032029;28;20181;-66
2022/03/17 02:28:23;;;;;;;30.73;9.47;;;-1.90;99.90;;;;;;5031630;28;20180;-64
2022/03/17 02:30:49;;;;;;;22.03;8.30;;;-2.00;99.90;;;;;;5031916;28;20186;-66
2022/03/17 02:33:16;;;;;;;22.10;8.23;;;-2.10;99.90;;;;;;5031802;28;20178;-66
2022/03/17 02:35:43;;;;;;;19.30;7.43;;;-2.10;99.90;;;;;;5031236;28;20188;-66
2022/03/17 02:38:13;;;;;;;22.53;7.40;;;-2.20;99.90;;;;;;5032061;28;20197;-65
2022/03/17 02:40:40;;;;;;;23.87;7.27;;;-2.20;99.90;;;;;;5014482;28;20172;-65
2022/03/17 02:43:06;;;;;;;14.80;7.37;;;-2.20;99.90;;;;;;5031757;28;20184;-66
2022/03/17 02:45:33;;;;;;;22.73;8.30;;;-2.20;99.90;;;;;;5031371;28;20185;-66
2022/03/17 02:47:59;;;;;;;17.80;7.40;;;-2.30;99.90;;;;;;5031236;28;20665;-65
2022/03/17 02:50:25;;;;;;;21.33;8.40;;;-2.30;99.90;;;;;;5031310;28;20188;-64
2022/03/17 02:52:50;;;;;;;39.87;7.33;;;-2.20;99.90;;;;;;5031628;28;20527;-66
2022/03/17 02:55:16;;;;;;;29.80;8.20;;;-2.10;99.90;;;;;;5031452;28;20626;-66
2022/03/17 02:57:47;;;;;;;41.87;8.53;;;-2.10;99.90;;;;;;5031269;28;20269;-65
2022/03/17 03:00:14;;;;;;;17.90;7.03;;;-2.10;99.90;;;;;;5031436;28;20589;-65
2022/03/17 03:02:40;;;;;;;28.20;7.27;;;-2.20;99.90;;;;;;5030943;28;20619;-65
2022/03/17 03:05:07;;;;;;;24.13;6.97;;;-2.30;99.90;;;;;;5014324;28;20678;-65
2022/03/17 03:07:34;;;;;;;24.33;7.90;;;-2.40;99.90;;;;;;5031125;28;20193;-65
2022/03/17 03:10:00;;;;;;;24.07;8.00;;;-2.50;99.90;;;;;;5031276;28;20223;-65
2022/03/17 03:12:25;;;;;;;24.47;7.13;;;-2.60;99.90;;;;;;5013456;28;20181;-65
2022/03/17 03:14:52;;;;;;;23.67;6.00;;;-2.70;99.90;;;;;;5013611;28;20240;-65
2022/03/17 03:17:18;;;;;;;22.07;7.93;;;-2.70;99.90;;;;;;5031533;28;20188;-65
2022/03/17 03:19:44;;;;;;;23.03;7.17;;;-2.80;99.90;;;;;;5030683;28;20265;-65
2022/03/17 03:22:09;;;;;;;14.27;7.07;;;-2.90;99.90;;;;;;5030811;28;20331;-65
2022/03/17 03:24:38;;;;;;;22.87;7.67;;;-2.90;99.90;;;;;;5031040;28;20688;-65
2022/03/17 03:27:05;;;;;;;18.70;6.63;;;-2.90;99.90;;;;;;5031353;28;20180;-65
2022/03/17 03:29:31;;;;;;;16.43;6.57;;;-2.90;99.90;;;;;;5032150;28;20180;-65
2022/03/17 03:32:03;;;;;;;19.73;6.57;;;-2.90;99.90;;;;;;5034847;28;20643;-65
2022/03/17 03:34:30;;;;;;;12.33;6.07;;;-3.00;99.90;;;;;;5034296;28;20228;-65
2022/03/17 03:39:41;;;;;;;19.27;6.17;;;-3.10;99.90;;;;;;5014567;28;20787;-65
2022/03/17 03:42:08;;;;;;;22.13;7.40;;;-3.20;99.90;;;;;;5014645;28;20221;-65
2022/03/17 03:44:35;;;;;;;18.60;6.93;;;-3.30;99.90;;;;;;5014574;28;20180;-65
2022/03/17 03:47:01;;;;;;;16.57;6.33;;;-3.30;99.90;;;;;;5014642;28;20599;-65
2022/03/17 03:49:27;;;;;;;18.10;6.67;;;-3.40;99.90;;;;;;5012962;28;20192;-65
2022/03/17 03:51:52;;;;;;;19.30;6.90;;;-3.50;99.90;;;;;;5014645;28;20192;-65
2022/03/17 03:54:18;;;;;;;25.13;6.63;;;-3.50;99.90;;;;;;5014784;28;20195;-65
2022/03/17 03:56:49;;;;;;;21.43;6.47;;;-3.50;99.90;;;;;;5014362;28;20276;-65
2022/03/17 03:59:19;;;;;;;15.00;6.43;;;-3.60;99.90;;;;;;5014373;28;20538;-66
2022/03/17 04:01:50;;;;;;;14.77;6.00;;;-3.60;99.90;;;;;;5014181;28;20204;-65
2022/03/17 04:04:20;;;;;;;17.00;6.37;;;-3.70;99.90;;;;;;5014212;28;20165;-65
2022/03/17 04:06:50;;;;;;;16.80;6.30;;;-3.70;99.90;;;;;;5012710;28;20535;-66
2022/03/17 04:09:17;;;;;;;19.97;6.13;;;-3.80;99.90;;;;;;5014367;28;20166;-65
2022/03/17 04:11:45;;;;;;;28.20;7.87;;;-3.80;99.90;;;;;;5013990;28;20627;-66
2022/03/17 04:14:12;;;;;;;25.53;8.10;;;-3.80;99.90;;;;;;5012726;28;20189;-66
2022/03/17 04:16:38;;;;;;;19.43;7.43;;;-3.80;99.90;;;;;;5013812;28;20696;-65
2022/03/17 04:19:05;;;;;;;20.27;7.57;;;-3.80;99.90;;;;;;5012838;28;20189;-65
2022/03/17 04:21:31;;;;;;;19.07;7.00;;;-3.80;99.90;;;;;;5012226;28;20343;-65
2022/03/17 04:23:58;;;;;;;24.67;7.73;;;-3.70;99.90;;;;;;5013592;28;20172;-66
2022/03/17 04:26:24;;;;;;;24.47;7.40;;;-3.80;99.90;;;;;;5013597;28;20247;-65
2022/03/17 04:28:50;;;;;;;27.13;7.50;;;-3.80;99.90;;;;;;5013940;28;20695;-65
2022/03/17 04:31:16;;;;;;;25.17;9.20;;;-3.80;99.90;;;;;;5012181;28;20659;-65
2022/03/17 04:33:42;;;;;;;21.77;7.60;;;-3.80;99.90;;;;;;5012985;28;20185;-66
2022/03/17 04:36:10;;;;;;;22.67;7.40;;;-3.80;99.90;;;;;;5021855;28;20182;-67
2022/03/17 04:38:36;;;;;;;18.93;7.47;;;-3.80;99.90;;;;;;5015279;28;20587;-65
2022/03/17 04:41:02;;;;;;;19.13;6.13;;;-3.80;99.90;;;;;;5032356;28;20207;-67
2022/03/17 04:43:28;;;;;;;16.80;6.77;;;-3.70;99.90;;;;;;5032973;28;20189;-65
2022/03/17 04:45:54;;;;;;;17.33;5.80;;;-3.70;99.90;;;;;;5032894;28;20183;-67
2022/03/17 04:48:20;;;;;;;19.73;6.67;;;-3.70;99.90;;;;;;5032086;28;20232;-66
2022/03/17 04:50:46;;;;;;;22.43;7.17;;;-3.70;99.90;;;;;;5014886;28;20185;-65
2022/03/17 04:53:27;;;;;;;21.20;6.67;;;-3.70;99.90;;;;;;5032385;28;20221;-66
2022/03/17 04:55:54;;;;;;;20.57;5.83;;;-3.70;99.90;;;;;;5032773;28;20262;-67
2022/03/17 04:58:20;;;;;;;23.20;7.03;;;-3.70;99.90;;;;;;5032569;28;20221;-66
2022/03/17 05:00:46;;;;;;;17.90;7.43;;;-3.70;99.90;;;;;;5032296;28;20666;-66
2022/03/17 05:03:12;;;;;;;29.97;9.50;;;-3.70;99.90;;;;;;5032884;28;20210;-68
2022/03/17 05:05:38;;;;;;;30.73;7.83;;;-3.60;99.90;;;;;;5032270;28;20600;-66
2022/03/17 05:08:05;;;;;;;25.67;9.27;;;-3.50;99.90;;;;;;5014752;28;20634;-67
2022/03/17 05:10:34;;;;;;;25.73;8.33;;;-3.50;99.90;;;;;;5014289;28;20182;-66
2022/03/17 05:13:00;;;;;;;35.87;11.80;;;-3.40;99.90;;;;;;5032343;28;20179;-67
2022/03/17 05:15:25;;;;;;;48.27;15.70;;;-3.40;99.90;;;;;;5032254;28;20194;-65
2022/03/17 05:17:51;;;;;;;50.07;12.93;;;-3.40;99.90;;;;;;5014453;28;20299;-67
2022/03/17 05:20:17;;;;;;;41.80;11.63;;;-3.30;99.90;;;;;;5031766;28;20183;-67
2022/03/17 05:22:43;;;;;;;25.13;9.43;;;-3.30;99.90;;;;;;5031839;28;20211;-66
2022/03/17 05:25:11;;;;;;;25.73;8.63;;;-3.20;99.90;;;;;;5032052;28;20204;-67
2022/03/17 05:27:41;;;;;;;19.97;8.30;;;-3.10;99.90;;;;;;5031830;28;20180;-67
2022/03/17 05:30:09;;;;;;;19.90;6.47;;;-3.00;99.90;;;;;;5031313;28;20202;-68
2022/03/17 05:32:35;;;;;;;13.47;5.73;;;-2.90;99.90;;;;;;5031517;28;20184;-67
2022/03/17 05:35:01;;;;;;;20.63;6.33;;;-2.90;99.90;;;;;;5030968;28;20629;-67
2022/03/17 05:37:27;;;;;;;22.47;6.60;;;-2.90;99.90;;;;;;5011372;28;20193;-66
2022/03/17 05:39:53;;;;;;;18.13;6.87;;;-2.80;99.90;;;;;;5011883;28;20606;-67
2022/03/17 05:42:18;;;;;;;34.00;8.20;;;-2.80;99.90;;;;;;5010311;28;20693;-67
2022/03/17 05:44:44;;;;;;;30.43;7.60;;;-2.70;99.90;;;;;;5011246;28;20654;-66
2022/03/17 05:47:10;;;;;;;23.97;6.70;;;-2.70;99.90;;;;;;5011208;28;20545;-67
2022/03/17 05:49:36;;;;;;;30.40;7.37;;;-2.70;99.90;;;;;;5009268;28;20177;-67
2022/03/17 05:52:03;;;;;;;14.70;6.10;;;-2.70;99.90;;;;;;5011233;28;20186;-68
2022/03/17 05:54:28;;;;;;;18.80;5.73;;;-2.70;99.90;;;;;;5011307;28;20185;-65
2022/03/17 05:56:54;;;;;;;16.97;5.87;;;-2.60;99.90;;;;;;5011619;28;20639;-68
2022/03/17 05:59:20;;;;;;;15.80;5.83;;;-2.60;99.90;;;;;;5011832;28;20548;-68
2022/03/17 06:01:46;;;;;;;17.93;6.10;;;-2.60;99.90;;;;;;5010958;28;20213;-69
2022/03/17 06:04:12;;;;;;;25.97;7.67;;;-2.60;99.90;;;;;;4993666;28;20548;-67
2022/03/17 06:06:37;;;;;;;17.30;6.57;;;-2.60;99.90;;;;;;5009486;28;20186;-66
2022/03/17 06:09:03;;;;;;;14.03;6.50;;;-2.60;99.90;;;;;;5001872;28;20220;-68
2022/03/17 06:11:29;;;;;;;23.67;8.97;;;-2.60;99.90;;;;;;5000409;28;20439;-70
2022/03/17 06:13:56;;;;;;;39.93;8.93;;;-2.60;99.90;;;;;;5020567;28;20186;-61
2022/03/17 06:16:23;;;;;;;29.73;10.20;;;-2.50;99.90;;;;;;5019335;28;20193;-66
2022/03/17 06:18:49;;;;;;;34.50;8.80;;;-2.30;99.90;;;;;;5002037;28;21004;-71
2022/03/17 06:21:15;;;;;;;23.13;7.60;;;-2.20;99.90;;;;;;5019544;28;20206;-74
2022/03/17 06:23:43;;;;;;;24.50;6.67;;;-1.90;99.90;;;;;;5002526;28;20526;-63
2022/03/17 06:26:09;;;;;;;33.37;9.00;;;-1.70;99.90;;;;;;5019379;28;20255;-69
2022/03/17 06:28:35;;;;;;;21.87;6.83;;;-1.60;99.90;;;;;;5016958;28;20201;-69
2022/03/17 06:31:01;;;;;;;28.13;8.50;;;-1.50;99.90;;;;;;5019663;28;20285;-71
2022/03/17 06:33:29;;;;;;;38.70;8.70;;;-1.50;99.90;;;;;;5019284;28;20286;-69
2022/03/17 06:35:55;;;;;;;43.07;10.80;;;-1.40;99.90;;;;;;5018905;28;20202;-72
2022/03/17 06:38:21;;;;;;;40.97;9.50;;;-1.30;99.90;;;;;;5018811;28;20197;-79
2022/03/17 06:40:47;;;;;;;23.60;8.17;;;-1.20;99.90;;;;;;5018226;28;20194;-68
2022/03/17 06:43:17;;;;;;;27.57;7.77;;;-1.10;99.90;;;;;;5017509;28;20194;-74
2022/03/17 06:45:44;;;;;;;28.87;9.33;;;-1.10;99.90;;;;;;5002320;28;20205;-69
2022/03/17 06:48:10;;;;;;;35.33;10.20;;;-1.00;99.90;;;;;;5019049;28;20333;-70
2022/03/17 06:50:36;;;;;;;18.67;7.50;;;-0.90;99.90;;;;;;5019242;28;20266;-68
2022/03/17 06:53:02;;;;;;;21.03;8.17;;;-0.80;99.90;;;;;;5018766;28;20529;-72
2022/03/17 06:55:28;;;;;;;25.95;7.88;;;-0.90;99.90;;;;;;5002325;28;20840;-73
2022/03/17 06:57:54;;;;;;;20.23;6.83;;;-1.00;99.90;;;;;;5018796;28;20190;-75
2022/03/17 07:00:21;;;;;;;22.70;6.13;;;-1.00;99.90;;;;;;5018571;28;20195;-65
2022/03/17 07:02:47;;;;;;;19.20;6.40;;;-1.00;99.90;;;;;;5019781;28;20218;-68
2022/03/17 07:05:14;;;;;;;28.20;7.50;;;-1.10;99.90;;;;;;5022037;28;20244;-68
2022/03/17 07:07:40;;;;;;;17.67;6.90;;;-1.00;99.90;;;;;;5021382;28;20627;-67
2022/03/17 07:10:08;;;;;;;15.80;6.93;;;-0.90;99.90;;;;;;5022538;28;20194;-68
2022/03/17 07:12:38;;;;;;;24.07;7.63;;;-0.80;99.90;;;;;;5004985;28;20191;-68
2022/03/17 07:15:05;;;;;;;25.10;7.90;;;-0.70;99.90;;;;;;5022183;28;20222;-69
2022/03/17 07:17:41;;;;;;;32.10;10.97;;;-0.50;99.90;;;;;;5017654;28;20835;-67
2022/03/17 07:20:09;;;;;;;17.90;7.30;;;-0.50;99.90;;;;;;5027813;28;20419;-65
2022/03/17 07:22:35;;;;;;;18.73;7.93;;;-0.40;99.90;;;;;;5023948;28;20211;-69
2022/03/17 07:25:02;;;;;;;25.93;7.10;;;-0.30;99.90;;;;;;5002545;28;20634;-62
2022/03/17 07:27:29;;;;;;;27.83;8.27;;;-0.30;99.90;;;;;;5023127;28;20230;-65
2022/03/17 07:29:55;;;;;;;19.93;7.03;;;-0.10;99.90;;;;;;5023015;28;20180;-60
2022/03/17 07:32:22;;;;;;;19.83;7.30;;;-0.10;99.90;;;;;;5022196;28;20192;-62
2022/03/17 07:34:49;;;;;;;19.27;7.33;;;0.10;99.90;;;;;;5005063;28;20191;-63
2022/03/17 07:37:15;;;;;;;18.97;6.07;;;0.10;99.90;;;;;;5023281;28;20187;-61
2022/03/17 07:39:42;;;;;;;12.80;5.57;;;0.20;99.90;;;;;;5004121;28;20643;-62
2022/03/17 07:42:08;;;;;;;17.67;7.03;;;0.20;99.90;;;;;;5021028;28;20221;-61
2022/03/17 07:44:35;;;;;;;21.83;6.90;;;0.20;99.90;;;;;;5004194;28;20270;-61
2022/03/17 07:47:01;;;;;;;17.33;7.37;;;0.10;99.90;;;;;;5004412;28;20226;-63
2022/03/17 07:49:28;;;;;;;17.23;7.13;;;0.10;99.90;;;;;;5003462;28;20199;-59
2022/03/17 07:51:54;;;;;;;25.90;6.90;;;0.20;99.90;;;;;;5004078;28;20213;-62
2022/03/17 07:54:21;;;;;;;14.70;6.13;;;0.20;99.90;;;;;;5022590;28;20236;-61
2022/03/17 07:56:47;;;;;;;36.67;8.73;;;0.20;99.90;;;;;;5021793;28;20215;-68
2022/03/17 07:59:16;;;;;;;18.27;6.53;;;0.30;99.50;;;;;;5022019;28;20218;-70
2022/03/17 08:01:42;;;;;;;29.40;8.13;;;0.40;99.60;;;;;;5004265;28;20685;-66
2022/03/17 08:04:08;;;;;;;22.27;7.93;;;0.40;99.60;;;;;;5012057;28;20184;-64
2022/03/17 08:06:33;;;;;;;31.90;8.27;;;0.50;99.50;;;;;;5020423;28;20673;-69
2022/03/17 08:08:59;;;;;;;14.00;5.83;;;0.50;98.90;;;;;;5021745;28;20187;-72
2022/03/17 08:11:25;;;;;;;16.70;6.20;;;0.50;98.50;;;;;;5004671;28;20669;-69
2022/03/17 08:13:51;;;;;;;15.07;5.63;;;0.60;98.40;;;;;;5004148;28;20269;-69
2022/03/17 08:16:17;;;;;;;25.38;8.45;;;0.80;98.50;;;;;;5021725;28;20419;-65
2022/03/17 08:18:42;;;;;;;30.50;7.37;;;0.80;97.90;;;;;;5022045;28;20197;-65
2022/03/17 08:21:08;;;;;;;17.33;6.20;;;1.00;97.90;;;;;;5005497;28;20642;-62
2022/03/17 08:23:34;;;;;;;20.73;6.10;;;1.00;97.50;;;;;;5021593;28;20191;-67
2022/03/17 08:26:00;;;;;;;24.03;7.93;;;1.00;97.10;;;;;;5021127;28;20184;-68
2022/03/17 08:28:26;;;;;;;15.00;5.20;;;1.00;97.40;;;;;;5021700;28;20291;-70
2022/03/17 08:30:52;;;;;;;21.37;6.90;;;1.00;97.50;;;;;;5020830;28;20682;-69
2022/03/17 08:33:18;;;;;;;29.50;8.10;;;1.00;97.50;;;;;;5004208;28;20203;-70
2022/03/17 08:35:45;;;;;;;26.07;7.50;;;1.00;97.70;;;;;;5023231;28;20213;-67
2022/03/17 08:38:12;;;;;;;22.30;7.57;;;1.00;97.40;;;;;;5021405;28;20287;-71
2022/03/17 08:40:40;;;;;;;19.27;5.57;;;1.00;97.10;;;;;;5021336;28;20239;-68
2022/03/17 08:43:07;;;;;;;29.08;15.05;;;1.00;96.90;;;;;;5020832;28;20435;-70
2022/03/17 08:51:01;;;;;;;15.13;6.20;;;1.10;96.70;;;;;;5020922;28;20283;-64
2022/03/17 08:53:27;;;;;;;21.10;6.43;;;1.20;96.40;;;;;;5021258;28;20289;-69
2022/03/17 08:55:53;;;;;;;19.53;8.13;;;1.30;96.50;;;;;;5001634;28;20631;-65
2022/03/17 08:58:19;;;;;;;20.40;6.47;;;1.40;96.30;;;;;;5020709;28;20207;-66
2022/03/17 09:00:45;;;;;;;23.40;6.77;;;1.40;96.10;;;;;;5020485;28;20223;-64
2022/03/17 09:03:11;;;;;;;25.30;7.90;;;1.40;95.80;;;;;;5020399;28;20232;-72
2022/03/17 09:05:37;;;;;;;18.90;7.77;;;1.40;96.40;;;;;;5010372;28;20277;-65
2022/03/17 09:08:06;;;;;;;19.50;5.83;;;1.50;96.20;;;;;;5020154;28;20250;-67
2022/03/17 09:10:35;;;;;;;22.27;9.60;;;1.40;95.60;;;;;;5019331;28;20187;-63
2022/03/17 09:13:07;;;;;;;18.50;8.93;;;1.40;96.00;;;;;;5020271;28;20191;-69
2022/03/17 09:15:36;;;;;;;26.43;9.57;;;1.40;96.20;;;;;;5021672;28;20223;-64
2022/03/17 09:18:02;;;;;;;17.80;7.20;;;1.50;96.20;;;;;;5021832;28;20188;-62
2022/03/17 09:20:28;;;;;;;16.37;7.43;;;1.50;95.90;;;;;;5020890;28;20190;-61
2022/03/17 09:22:56;;;;;;;21.13;7.10;;;1.60;95.70;;;;;;5003122;28;20733;-60
2022/03/17 09:25:26;;;;;;;21.20;7.77;;;1.60;95.50;;;;;;5021129;28;20178;-63
2022/03/17 09:27:52;;;;;;;15.13;6.43;;;1.70;95.80;;;;;;5020234;28;20199;-65
2022/03/17 09:30:19;;;;;;;16.30;6.87;;;1.70;95.90;;;;;;5020793;28;20200;-54
2022/03/17 09:32:45;;;;;;;23.63;7.83;;;1.80;95.70;;;;;;5020173;28;20270;-69
2022/03/17 09:35:11;;;;;;;19.03;7.60;;;1.70;95.50;;;;;;5003377;28;20203;-70
2022/03/17 09:37:38;;;;;;;16.87;6.90;;;1.80;95.70;;;;;;5002828;28;20197;-66
2022/03/17 09:40:06;;;;;;;21.40;7.27;;;1.80;95.10;;;;;;5020052;28;20263;-65
2022/03/17 09:42:31;;;;;;;20.57;7.97;;;1.90;95.40;;;;;;5020425;28;20220;-66
2022/03/17 09:44:57;;;;;;;26.67;7.53;;;1.90;95.30;;;;;;5019999;28;20283;-68
2022/03/17 09:47:27;;;;;;;24.07;7.53;;;1.90;95.30;;;;;;5019931;28;20309;-69
2022/03/17 09:49:54;;;;;;;17.77;5.80;;;2.10;95.50;;;;;;5019772;28;20307;-68
2022/03/17 09:52:20;;;;;;;18.10;8.80;;;2.30;95.10;;;;;;5019913;28;20746;-68
2022/03/17 09:54:52;;;;;;;22.33;6.87;;;2.50;95.00;;;;;;5019392;28;20182;-67
2022/03/17 09:57:18;;;;;;;41.13;12.40;;;2.70;94.70;;;;;;5020179;28;20193;-66
2022/03/17 09:59:53;;;;;;;13.10;5.67;;;2.70;93.70;;;;;;5019182;28;20183;-68
2022/03/17 10:02:20;;;;;;;12.90;6.90;;;2.70;93.70;;;;;;5001433;28;20315;-62
2022/03/17 10:04:50;;;;;;;8.90;4.87;;;2.60;93.30;;;;;;5019620;28;20191;-66
2022/03/17 10:07:18;;;;;;;14.20;5.00;;;2.70;92.90;;;;;;5020959;28;20183;-65
2022/03/17 10:09:44;;;;;;;20.53;6.93;;;2.70;93.00;;;;;;5018958;28;20518;-63
2022/03/17 10:12:12;;;;;;;11.83;5.07;;;2.80;92.30;;;;;;5001274;28;20213;-66
2022/03/17 10:14:52;;;;;;;9.53;4.27;;;2.80;92.30;;;;;;5019064;28;20187;-64
2022/03/17 10:17:38;;;;;;;25.50;6.93;;;2.80;91.80;;;;;;5019682;28;20697;-63
2022/03/17 10:20:13;;;;;;;15.23;5.50;;;2.50;92.50;;;;;;5018862;28;20195;-68
2022/03/17 10:22:44;;;;;;;13.23;5.23;;;2.60;92.40;;;;;;5001893;28;20218;-66
2022/03/17 10:25:13;;;;;;;15.77;5.37;;;2.80;92.50;;;;;;5018866;28;20598;-69
2022/03/17 10:27:41;;;;;;;22.23;7.93;;;3.10;92.50;;;;;;5020009;28;20231;-65
2022/03/17 10:30:07;;;;;;;15.00;6.30;;;3.30;92.20;;;;;;5018586;28;20235;-65
2022/03/17 10:32:33;;;;;;;17.20;5.97;;;3.50;91.50;;;;;;5002361;28;20197;-66
2022/03/17 10:34:59;;;;;;;9.70;4.90;;;3.60;91.80;;;;;;5002837;28;20201;-63
2022/03/17 10:37:26;;;;;;;20.27;9.05;;;3.60;90.80;;;;;;5018588;28;20404;-65
2022/03/17 10:39:54;;;;;;;24.93;8.83;;;3.40;90.60;;;;;;5020795;28;20726;-73
2022/03/17 10:42:22;;;;;;;22.67;9.97;;;3.20;90.30;;;;;;5022758;28;20231;-66
2022/03/17 10:44:50;;;;;;;23.27;6.67;;;3.40;90.40;;;;;;5023381;28;20190;-68
2022/03/17 10:47:30;;;;;;;23.10;6.33;;;3.60;90.10;;;;;;5001807;28;20241;-68
2022/03/17 10:50:04;;;;;;;13.10;5.40;;;3.80;88.50;;;;;;5002192;28;20241;-72
2022/03/17 10:52:50;;;;;;;10.90;4.67;;;4.00;87.20;;;;;;5002936;28;20206;-68
2022/03/17 10:55:39;;;;;;;15.37;4.60;;;4.10;85.80;;;;;;5000873;28;20184;-64
2022/03/17 10:58:20;;;;;;;14.17;5.27;;;3.90;84.60;;;;;;5002158;28;20199;-65
2022/03/17 11:00:49;;;;;;;24.60;5.77;;;3.90;84.50;;;;;;5001617;28;20562;-61
2022/03/17 11:03:16;;;;;;;14.93;5.50;;;4.00;84.70;;;;;;5002387;28;20241;-65
2022/03/17 11:05:42;;;;;;;16.60;4.87;;;3.90;83.60;;;;;;5002118;28;20202;-66
2022/03/17 11:08:09;;;;;;;14.43;5.53;;;3.90;82.40;;;;;;5000778;28;20242;-63
2022/03/17 11:10:36;;;;;;;13.70;4.20;;;3.90;82.40;;;;;;5017002;28;20195;-67
2022/03/17 11:13:09;;;;;;;26.97;7.00;;;4.20;82.60;;;;;;5001554;28;20196;-65
2022/03/17 11:15:41;;;;;;;17.20;7.20;;;4.60;83.30;;;;;;5001812;28;20563;-65
2022/03/17 11:18:18;;;;;;;15.93;5.00;;;5.00;82.30;;;;;;5002106;28;20180;-62
2022/03/17 11:20:44;;;;;;;6.87;3.07;;;5.30;80.10;;;;;;5001863;28;20659;-70
2022/03/17 11:23:15;;;;;;;9.53;3.27;;;5.10;76.30;;;;;;5001712;28;20277;-64
2022/03/17 11:25:55;;;;;;;13.23;4.03;;;4.90;74.60;;;;;;5016650;28;20266;-68
2022/03/17 11:28:32;;;;;;;11.43;3.67;;;4.80;74.30;;;;;;5001444;28;20234;-61
2022/03/17 11:31:03;;;;;;;22.23;6.17;;;4.90;76.60;;;;;;5001678;28;20196;-61
2022/03/17 11:33:36;;;;;;;23.23;5.40;;;5.20;77.50;;;;;;5001809;28;20205;-67
2022/03/17 11:36:08;;;;;;;15.20;4.53;;;5.50;75.50;;;;;;5007641;28;20189;-70
2022/03/17 11:38:38;;;;;;;9.33;3.67;;;5.80;75.60;;;;;;5016053;28;20660;-62
2022/03/17 11:41:08;;;;;;;11.77;3.87;;;6.10;74.60;;;;;;5000841;28;20281;-62
2022/03/17 11:43:58;;;;;;;17.37;4.40;;;6.00;73.00;;;;;;5001135;28;20191;-67
2022/03/17 11:46:34;;;;;;;10.03;3.40;;;6.30;72.90;;;;;;5001939;28;20200;-65
2022/03/17 11:49:20;;;;;;;8.43;3.37;;;6.70;70.70;;;;;;4973672;28;1375593;-66
2022/03/17 11:51:53;;;;;;;11.80;3.90;;;6.80;69.20;;;;;;5019484;28;20198;-68
2022/03/17 11:54:19;;;;;;;11.85;5.13;;;6.40;67.90;;;;;;5020356;28;20500;-65
2022/03/17 11:56:47;;;;;;;19.80;4.70;;;6.50;69.40;;;;;;5011029;28;20583;-66
2022/03/17 11:59:16;;;;;;;9.23;4.47;;;7.40;65.90;;;;;;5021841;28;20183;-65
2022/03/17 12:01:49;;;;;;;20.63;5.03;;;8.70;62.00;;;;;;5021305;28;20220;-64
2022/03/17 12:04:30;;;;;;;12.33;3.87;;;10.50;58.70;;;;;;5021183;28;20189;-62
2022/03/17 12:07:18;;;;;;;15.37;4.27;;;11.70;55.40;;;;;;5004652;28;20211;-60
2022/03/17 12:09:44;;;;;;;14.10;4.53;;;12.00;51.40;;;;;;5020996;28;20270;-62
2022/03/17 12:12:22;;;;;;;13.23;5.37;;;12.20;49.60;;;;;;5021272;28;20280;-63
2022/03/17 12:14:54;;;;;;;10.20;3.83;;;12.50;48.30;;;;;;5021161;28;20247;-61
2022/03/17 12:17:22;;;;;;;10.23;4.63;;;11.80;47.60;;;;;;5021890;28;20207;-65
2022/03/17 12:20:09;;;;;;;12.03;4.53;;;11.60;47.10;;;;;;5021267;28;20200;-65
2022/03/17 12:22:43;;;;;;;7.57;3.00;;;12.30;46.60;;;;;;5020221;28;20320;-62
2022/03/17 12:25:20;;;;;;;8.83;3.93;;;13.40;43.50;;;;;;5020816;28;20199;-64
2022/03/17 12:27:59;;;;;;;7.50;3.80;;;14.00;40.80;;;;;;5003053;28;20195;-60
2022/03/17 12:30:28;;;;;;;12.93;3.50;;;14.40;39.80;;;;;;5003469;28;20191;-62
2022/03/17 12:32:58;;;;;;;16.00;4.40;;;14.00;39.10;;;;;;5020676;28;20773;-61
2022/03/17 12:35:26;;;;;;;25.27;5.83;;;14.40;39.80;;;;;;5021660;28;20182;-63
2022/03/17 12:38:01;;;;;;;10.07;3.37;;;15.40;37.90;;;;;;5020300;28;20195;-60
2022/03/17 12:40:27;;;;;;;14.60;3.37;;;15.40;35.70;;;;;;5021298;28;20187;-65
2022/03/17 12:42:53;;;;;;;19.53;4.17;;;15.60;35.10;;;;;;5020478;28;20517;-63
2022/03/17 12:45:24;;;;;;;7.00;3.70;;;15.30;35.20;;;;;;5021471;28;20267;-65
2022/03/17 12:47:56;;;;;;;21.27;4.73;;;14.50;35.70;;;;;;5020603;28;20251;-65
2022/03/17 12:50:23;;;;;;;7.87;3.67;;;15.90;35.80;;;;;;5021485;28;20191;-62
2022/03/17 12:52:50;;;;;;;12.77;4.20;;;16.40;33.40;;;;;;5020882;28;20226;-71
2022/03/17 12:55:21;;;;;;;13.53;3.67;;;16.30;33.60;;;;;;5020050;28;20267;-67
2022/03/17 12:57:47;;;;;;;7.67;3.20;;;15.30;33.00;;;;;;5020466;28;20202;-69
2022/03/17 13:00:15;;;;;;;11.57;4.63;;;13.30;34.00;;;;;;5021704;28;20214;-64